createdAt,value
2019-04-04T00:01:32.011Z,16.67
2019-04-04T00:04:00.525Z,18.97
2019-04-04T00:06:30.846Z,16.87
2019-04-04T00:09:00.087Z,15.10
2019-04-04T00:11:29.177Z,16.20
2019-04-04T00:14:00.855Z,20.33
2019-04-04T00:16:29.209Z,19.57
2019-04-04T00:18:59.110Z,19.60
2019-04-04T00:21:27.513Z,17.20
2019-04-04T00:23:56.735Z,16.63
2019-04-04T00:26:24.928Z,19.10
2019-04-04T00:28:53.279Z,13.40
2019-04-04T00:31:23.393Z,13.03
2019-04-04T00:33:51.782Z,19.20
2019-04-04T00:36:20.016Z,20.07
2019-04-04T00:38:48.636Z,21.67
2019-04-04T00:41:16.883Z,15.93
2019-04-04T00:43:45.396Z,18.17
2019-04-04T00:46:13.829Z,16.93
2019-04-04T00:48:42.074Z,19.27
2019-04-04T00:51:10.333Z,14.80
2019-04-04T00:53:38.729Z,15.80
2019-04-04T00:56:07.462Z,20.40
2019-04-04T00:58:35.672Z,14.90
2019-04-04T01:01:04.235Z,37.33
2019-04-04T01:03:32.523Z,19.53
2019-04-04T01:06:02.688Z,16.43
2019-04-04T01:08:30.600Z,16.90
2019-04-04T01:10:58.948Z,28.07
2019-04-04T01:13:27.644Z,17.13
2019-04-04T01:15:56.276Z,16.10
2019-04-04T01:18:24.569Z,18.93
2019-04-04T01:20:52.996Z,25.33
2019-04-04T01:23:21.386Z,23.37
2019-04-04T01:25:50.536Z,30.20
2019-04-04T01:28:18.745Z,25.67
2019-04-04T01:30:47.015Z,25.23
2019-04-04T01:33:15.510Z,19.57
2019-04-04T01:35:43.889Z,23.80
2019-04-04T01:38:12.335Z,16.37
2019-04-04T01:40:40.731Z,20.70
2019-04-04T01:43:09.365Z,15.20
2019-04-04T01:45:38.401Z,21.60
2019-04-04T01:48:06.658Z,13.90
2019-04-04T01:50:34.823Z,13.67
2019-04-04T01:53:03.009Z,16.17
2019-04-04T01:55:32.951Z,15.07
2019-04-04T01:58:01.811Z,16.27
2019-04-04T02:00:30.041Z,15.67
2019-04-04T02:02:59.554Z,16.43
2019-04-04T02:05:27.867Z,19.27
2019-04-04T02:07:56.059Z,20.30
2019-04-04T02:10:24.252Z,49.27
2019-04-04T02:12:52.836Z,28.83
2019-04-04T02:15:21.213Z,25.40
2019-04-04T02:17:51.044Z,12.63
2019-04-04T02:20:20.235Z,15.03
2019-04-04T02:22:48.436Z,17.00
2019-04-04T02:25:16.672Z,16.73
2019-04-04T02:27:46.032Z,12.53
2019-04-04T02:30:15.999Z,19.93
2019-04-04T02:32:44.313Z,29.83
2019-04-04T02:35:12.729Z,28.30
2019-04-04T02:37:40.972Z,22.23
2019-04-04T02:40:10.127Z,23.63
2019-04-04T02:42:38.587Z,21.97
2019-04-04T02:45:06.782Z,28.73
2019-04-04T02:47:35.335Z,28.40
2019-04-04T02:50:04.363Z,24.03
2019-04-04T02:52:32.586Z,23.67
2019-04-04T02:55:01.324Z,23.57
2019-04-04T02:57:29.699Z,28.90
2019-04-04T02:59:58.120Z,28.80
2019-04-04T03:02:26.728Z,26.20
2019-04-04T03:04:57.974Z,26.13
2019-04-04T03:07:29.912Z,23.00
2019-04-04T03:09:57.399Z,22.70
2019-04-04T03:12:26.321Z,23.10
2019-04-04T03:14:55.222Z,24.07
2019-04-04T03:17:23.464Z,21.00
2019-04-04T03:19:51.824Z,26.27
2019-04-04T03:22:19.995Z,22.20
2019-04-04T03:24:49.925Z,24.07
2019-04-04T03:27:18.065Z,21.70
2019-04-04T03:29:47.951Z,23.43
2019-04-04T03:32:16.942Z,22.10
2019-04-04T03:34:50.180Z,27.27
2019-04-04T03:37:17.866Z,26.47
2019-04-04T03:39:46.690Z,26.57
2019-04-04T03:42:17.185Z,21.47
2019-04-04T03:44:45.493Z,28.53
2019-04-04T03:47:14.164Z,32.53
2019-04-04T03:49:42.585Z,33.93
2019-04-04T03:52:12.905Z,33.40
2019-04-04T03:54:45.113Z,30.23
2019-04-04T03:57:15.451Z,28.10
2019-04-04T03:59:43.846Z,30.60
2019-04-04T04:02:12.032Z,28.10
2019-04-04T04:04:42.364Z,28.03
2019-04-04T04:07:13.838Z,26.50
2019-04-04T04:09:42.668Z,27.30
2019-04-04T04:12:15.211Z,28.00
2019-04-04T04:14:43.481Z,30.37
2019-04-04T04:17:13.787Z,32.27
2019-04-04T04:19:44.627Z,32.93
2019-04-04T04:22:15.822Z,30.40
2019-04-04T04:24:45.411Z,38.27
2019-04-04T04:27:15.474Z,28.87
2019-04-04T04:29:43.460Z,28.10
2019-04-04T04:32:12.610Z,32.77
2019-04-04T04:34:40.989Z,30.10
2019-04-04T04:37:09.284Z,35.93
2019-04-04T04:39:41.266Z,37.10
2019-04-04T04:42:10.065Z,40.60
2019-04-04T04:44:41.051Z,33.30
2019-04-04T04:47:11.597Z,35.30
2019-04-04T04:49:41.798Z,34.33
2019-04-04T04:52:09.960Z,42.83
2019-04-04T04:54:38.301Z,38.60
2019-04-04T04:57:08.835Z,50.30
2019-04-04T04:59:39.548Z,47.30
2019-04-04T05:02:10.317Z,57.53
2019-04-04T05:04:38.690Z,71.00
2019-04-04T05:07:07.993Z,65.00
2019-04-04T05:09:36.332Z,75.63
2019-04-04T05:12:04.638Z,69.73
2019-04-04T05:14:33.210Z,79.50
2019-04-04T05:17:01.431Z,81.03
2019-04-04T05:19:29.880Z,70.37
2019-04-04T05:21:58.272Z,98.00
2019-04-04T05:24:26.628Z,147.33
2019-04-04T05:26:57.153Z,178.63
2019-04-04T05:29:29.917Z,137.67
2019-04-04T05:32:00.554Z,97.83
2019-04-04T05:34:32.233Z,66.90
2019-04-04T05:37:05.141Z,64.47
2019-04-04T05:39:39.665Z,75.17
2019-04-04T05:42:10.284Z,89.10
2019-04-04T05:44:41.309Z,85.33
2019-04-04T05:47:10.957Z,71.67
2019-04-04T05:49:41.609Z,66.13
2019-04-04T05:52:09.985Z,97.13
2019-04-04T05:54:41.467Z,62.17
2019-04-04T05:57:14.363Z,68.17
2019-04-04T05:59:44.920Z,53.00
2019-04-04T06:02:15.731Z,51.17
2019-04-04T06:04:46.118Z,50.13
2019-04-04T06:07:16.855Z,47.57
2019-04-04T06:09:49.755Z,50.97
2019-04-04T06:12:18.932Z,54.10
2019-04-04T06:14:49.952Z,39.60
2019-04-04T06:17:18.420Z,41.23
2019-04-04T06:19:49.089Z,43.00
2019-04-04T06:22:22.089Z,42.47
2019-04-04T06:24:52.797Z,45.00
2019-04-04T06:27:21.407Z,43.97
2019-04-04T06:29:54.673Z,51.43
2019-04-04T06:32:23.260Z,43.40
2019-04-04T06:34:51.683Z,40.57
2019-04-04T06:37:23.506Z,35.83
2019-04-04T06:39:54.313Z,42.27
2019-04-04T06:42:24.550Z,38.43
2019-04-04T06:44:54.252Z,35.73
2019-04-04T06:47:25.515Z,33.00
2019-04-04T06:49:54.697Z,31.27
2019-04-04T06:52:25.429Z,35.10
2019-04-04T06:54:57.073Z,35.33
2019-04-04T06:57:23.787Z,30.37
2019-04-04T06:59:54.449Z,35.10
2019-04-04T07:02:24.895Z,37.00
2019-04-04T07:04:53.041Z,40.37
2019-04-04T07:07:23.786Z,40.60
2019-04-04T07:09:56.204Z,32.20
2019-04-04T07:12:28.468Z,33.73
2019-04-04T07:14:56.688Z,26.50
2019-04-04T07:17:25.145Z,30.60
2019-04-04T07:19:53.655Z,32.87
2019-04-04T07:22:24.823Z,29.70
2019-04-04T07:24:53.771Z,34.97
2019-04-04T07:27:22.241Z,31.03
2019-04-04T07:29:53.086Z,27.27
2019-04-04T07:32:21.655Z,26.93
2019-04-04T07:34:52.290Z,28.50
2019-04-04T07:37:22.169Z,28.83
2019-04-04T07:39:51.224Z,25.47
2019-04-04T07:42:21.828Z,13.80
2019-04-04T07:44:50.138Z,22.77
2019-04-04T07:47:20.531Z,11.27
2019-04-04T07:49:53.192Z,9.27
2019-04-04T07:52:23.301Z,9.53
2019-04-04T07:54:53.987Z,10.67
2019-04-04T07:57:22.130Z,9.10
2019-04-04T07:59:50.603Z,10.60
2019-04-04T08:02:21.389Z,12.47
2019-04-04T08:04:49.668Z,11.40
2019-04-04T08:07:17.819Z,10.77
2019-04-04T08:09:46.012Z,9.40
2019-04-04T08:12:14.269Z,10.37
2019-04-04T08:14:42.730Z,11.23
2019-04-04T08:17:11.502Z,10.90
2019-04-04T08:19:40.167Z,12.43
2019-04-04T08:22:10.827Z,10.03
2019-04-04T08:24:39.130Z,9.17
2019-04-04T08:27:07.773Z,11.03
2019-04-04T08:29:35.963Z,9.57
2019-04-04T08:32:04.375Z,13.50
2019-04-04T08:34:32.570Z,9.50
2019-04-04T08:37:00.711Z,9.57
2019-04-04T08:39:29.071Z,8.57
2019-04-04T08:42:00.396Z,10.10
2019-04-04T08:44:28.566Z,12.07
2019-04-04T08:46:57.073Z,8.70
2019-04-04T08:49:25.263Z,11.30
2019-04-04T08:51:53.411Z,9.23
2019-04-04T08:54:21.642Z,8.90
2019-04-04T08:56:49.900Z,9.13
2019-04-04T08:59:20.215Z,9.80
2019-04-04T09:01:48.676Z,11.47
2019-04-04T09:04:16.868Z,9.43
2019-04-04T09:06:45.322Z,10.20
2019-04-04T09:09:13.779Z,12.20
2019-04-04T09:11:42.034Z,13.07
2019-04-04T09:14:12.308Z,12.60
2019-04-04T09:16:40.779Z,9.63
2019-04-04T09:19:09.099Z,11.65
2019-04-04T09:21:37.259Z,9.30
2019-04-04T09:24:05.770Z,11.83
2019-04-04T09:26:33.911Z,9.87
2019-04-04T09:29:02.480Z,10.55
2019-04-04T09:31:30.818Z,10.27
2019-04-04T09:33:58.968Z,9.83
2019-04-04T09:36:27.135Z,11.27
2019-04-04T09:38:55.540Z,10.93
2019-04-04T09:41:23.936Z,12.60
2019-04-04T09:43:53.101Z,10.27
2019-04-04T09:46:21.599Z,9.60
2019-04-04T09:48:50.301Z,14.33
2019-04-04T09:51:18.763Z,17.13
2019-04-04T09:53:53.329Z,9.53
2019-04-04T09:56:16.905Z,9.83
2019-04-04T09:58:45.143Z,31.33
2019-04-04T10:01:13.841Z,9.13
2019-04-04T10:03:42.098Z,10.33
2019-04-04T10:06:10.340Z,12.25
2019-04-04T10:08:39.981Z,12.23
2019-04-04T10:11:08.247Z,8.77
2019-04-04T10:13:36.452Z,12.58
2019-04-04T10:16:04.762Z,10.27
2019-04-04T10:18:33.068Z,11.00
2019-04-04T10:21:11.709Z,8.80
2019-04-04T10:23:31.506Z,10.80
2019-04-04T10:25:59.836Z,9.08
2019-04-04T10:28:28.150Z,9.35
2019-04-04T10:30:56.376Z,8.93
2019-04-04T10:33:24.677Z,9.93
2019-04-04T10:35:52.909Z,9.43
2019-04-04T10:38:21.269Z,8.70
2019-04-04T10:40:49.765Z,9.38
2019-04-04T10:43:18.254Z,12.80
2019-04-04T10:45:47.507Z,10.07
2019-04-04T10:48:15.881Z,12.50
2019-04-04T10:50:44.245Z,7.67
2019-04-04T10:53:12.770Z,7.72
2019-04-04T10:55:41.289Z,10.28
2019-04-04T10:58:09.798Z,10.28
2019-04-04T11:00:38.070Z,8.90
2019-04-04T11:03:06.263Z,10.90
2019-04-04T11:05:35.490Z,13.43
2019-04-04T11:08:04.336Z,8.08
2019-04-04T11:10:32.872Z,8.45
2019-04-04T11:13:02.845Z,8.70
2019-04-04T11:15:31.443Z,9.68
2019-04-04T11:17:59.993Z,9.23
2019-04-04T11:20:28.464Z,12.25
2019-04-04T11:22:56.901Z,11.20
2019-04-04T11:25:25.308Z,10.72
2019-04-04T11:27:53.913Z,6.75
2019-04-04T11:30:22.574Z,8.35
2019-04-04T11:32:50.931Z,8.15
2019-04-04T11:35:19.407Z,11.03
2019-04-04T11:37:47.972Z,8.20
2019-04-04T11:40:16.422Z,9.83
2019-04-04T11:42:44.996Z,9.38
2019-04-04T11:45:13.426Z,7.33
2019-04-04T11:47:42.579Z,7.90
2019-04-04T11:50:10.892Z,8.25
2019-04-04T11:52:39.333Z,7.65
2019-04-04T11:55:08.014Z,9.13
2019-04-04T11:57:36.626Z,9.65
2019-04-04T12:00:06.330Z,7.78
2019-04-04T12:02:34.581Z,7.22
2019-04-04T12:05:03.284Z,9.43
2019-04-04T12:07:31.509Z,8.68
2019-04-04T12:10:07.455Z,8.13
2019-04-04T12:12:29.935Z,8.48
2019-04-04T12:14:58.382Z,8.53
2019-04-04T12:17:26.645Z,9.75
2019-04-04T12:19:54.917Z,7.43
2019-04-04T12:22:23.412Z,7.85
2019-04-04T12:24:52.363Z,7.53
2019-04-04T12:27:20.662Z,9.10
2019-04-04T12:29:49.127Z,12.20
2019-04-04T12:32:17.849Z,7.45
2019-04-04T12:34:46.117Z,8.90
2019-04-04T12:37:14.505Z,8.13
2019-04-04T12:39:44.434Z,7.67
2019-04-04T12:42:12.793Z,8.87
2019-04-04T12:44:41.323Z,7.30
2019-04-04T12:47:09.721Z,7.37
2019-04-04T12:49:38.753Z,8.25
2019-04-04T12:52:06.993Z,8.13
2019-04-04T12:54:35.362Z,7.17
2019-04-04T12:57:03.726Z,9.47
2019-04-04T12:59:32.005Z,8.53
2019-04-04T13:02:00.197Z,8.03
2019-04-04T13:04:31.769Z,6.97
2019-04-04T13:06:58.644Z,8.25
2019-04-04T13:09:27.241Z,9.08
2019-04-04T13:11:55.899Z,10.13
2019-04-04T13:14:24.404Z,9.20
2019-04-04T13:16:52.861Z,7.70
2019-04-04T13:19:21.247Z,8.35
2019-04-04T13:21:49.883Z,7.60
2019-04-04T13:24:18.220Z,8.00
2019-04-04T13:26:46.797Z,10.30
2019-04-04T13:29:15.078Z,10.05
2019-04-04T13:31:43.341Z,11.53
2019-04-04T13:34:11.715Z,12.43
2019-04-04T13:36:40.053Z,8.43
2019-04-04T13:39:10.046Z,8.83
2019-04-04T13:41:38.377Z,9.10
2019-04-04T13:44:06.807Z,7.90
2019-04-04T13:46:35.342Z,8.35
2019-04-04T13:49:03.543Z,9.47
2019-04-04T13:51:33.100Z,8.55
2019-04-04T13:54:01.348Z,10.48
2019-04-04T13:56:29.807Z,11.57
2019-04-04T13:59:01.108Z,8.57
2019-04-04T14:01:28.391Z,8.10
2019-04-04T14:03:56.613Z,8.13
2019-04-04T14:06:25.158Z,9.07
2019-04-04T14:08:53.324Z,10.17
2019-04-04T14:11:21.705Z,8.85
2019-04-04T14:13:50.071Z,9.38
2019-04-04T14:16:18.670Z,9.10
2019-04-04T14:18:47.056Z,12.60
2019-04-04T14:21:15.990Z,8.73
2019-04-04T14:23:45.423Z,9.90
2019-04-04T14:26:14.071Z,25.33
2019-04-04T14:28:42.486Z,10.30
2019-04-04T14:31:10.986Z,11.10
2019-04-04T14:33:39.628Z,10.07
2019-04-04T14:36:07.991Z,8.83
2019-04-04T14:38:36.300Z,11.33
2019-04-04T14:41:11.001Z,12.40
2019-04-04T14:43:35.432Z,13.73
2019-04-04T14:46:03.654Z,12.87
2019-04-04T14:48:31.974Z,7.83
2019-04-04T14:51:00.410Z,9.20
2019-04-04T14:53:29.451Z,10.07
2019-04-04T14:55:57.913Z,9.57
2019-04-04T14:58:26.299Z,9.10
2019-04-04T15:00:55.068Z,9.73
2019-04-04T15:03:23.454Z,10.23
2019-04-04T15:05:51.682Z,8.87
2019-04-04T15:08:20.056Z,8.63
2019-04-04T15:10:48.469Z,8.17
2019-04-04T15:13:16.862Z,9.00
2019-04-04T15:15:46.877Z,8.70
2019-04-04T15:18:15.286Z,8.80
2019-04-04T15:20:43.821Z,9.30
2019-04-04T15:23:12.343Z,8.83
2019-04-04T15:25:40.543Z,8.67
2019-04-04T15:28:08.837Z,12.13
2019-04-04T15:30:37.484Z,11.47
2019-04-04T15:33:05.807Z,9.90
2019-04-04T15:35:34.376Z,11.27
2019-04-04T15:38:02.683Z,9.27
2019-04-04T15:40:31.131Z,17.23
2019-04-04T15:42:59.747Z,13.03
2019-04-04T15:45:28.328Z,14.23
2019-04-04T15:47:56.569Z,12.33
2019-04-04T15:50:24.861Z,10.33
2019-04-04T15:52:53.275Z,10.13
2019-04-04T15:55:23.189Z,15.03
2019-04-04T15:57:51.595Z,13.57
2019-04-04T16:00:20.072Z,13.83
2019-04-04T16:02:48.641Z,14.93
2019-04-04T16:05:16.959Z,19.87
2019-04-04T16:07:45.165Z,33.07
2019-04-04T16:10:15.021Z,21.27
2019-04-04T16:12:43.403Z,29.07
2019-04-04T16:15:11.840Z,16.93
2019-04-04T16:17:40.327Z,15.80
2019-04-04T16:20:08.816Z,29.37
2019-04-04T16:22:37.101Z,48.97
2019-04-04T16:25:06.186Z,38.37
2019-04-04T16:27:34.521Z,19.27
2019-04-04T16:30:03.205Z,25.83
2019-04-04T16:32:31.876Z,27.53
2019-04-04T16:35:00.136Z,18.60
2019-04-04T16:37:28.786Z,15.83
2019-04-04T16:40:08.203Z,16.47
2019-04-04T16:42:27.844Z,15.20
2019-04-04T16:44:56.334Z,28.07
2019-04-04T16:47:24.710Z,30.97
2019-04-04T16:49:53.050Z,18.90
2019-04-04T16:52:21.717Z,23.73
2019-04-04T16:54:49.944Z,43.53
2019-04-04T16:57:19.374Z,49.90
2019-04-04T16:59:47.621Z,39.77
2019-04-04T17:02:17.283Z,30.90
2019-04-04T17:04:45.565Z,38.90
2019-04-04T17:07:13.905Z,35.50
2019-04-04T17:09:49.898Z,37.80
2019-04-04T17:12:19.157Z,33.03
2019-04-04T17:14:47.542Z,33.07
2019-04-04T17:17:15.951Z,35.30
2019-04-04T17:19:47.337Z,32.13
2019-04-04T17:22:15.606Z,28.63
2019-04-04T17:24:44.337Z,39.90
2019-04-04T17:27:14.715Z,42.13
2019-04-04T17:29:43.261Z,38.70
2019-04-04T17:32:13.390Z,32.73
2019-04-04T17:34:51.327Z,50.87
2019-04-04T17:37:20.273Z,48.73
2019-04-04T17:39:51.024Z,51.83
2019-04-04T17:42:28.954Z,46.67
2019-04-04T17:44:51.420Z,35.57
2019-04-04T17:47:23.841Z,67.77
2019-04-04T17:49:52.488Z,61.37
2019-04-04T17:52:24.276Z,70.17
2019-04-04T17:54:56.744Z,185.40
2019-04-04T17:57:25.941Z,133.07
2019-04-04T18:00:04.769Z,142.63
2019-04-04T18:02:39.012Z,107.03
2019-04-04T18:05:10.403Z,111.67
2019-04-04T18:07:38.767Z,78.27
2019-04-04T18:10:07.053Z,102.50
2019-04-04T18:12:40.590Z,89.83
2019-04-04T18:15:06.914Z,103.97
2019-04-04T18:17:35.411Z,110.30
2019-04-04T18:20:08.183Z,121.33
2019-04-04T18:22:37.259Z,142.87
2019-04-04T18:25:06.343Z,121.43
2019-04-04T18:27:35.251Z,114.50
2019-04-04T18:30:05.533Z,96.50
2019-04-04T18:32:34.199Z,96.67
2019-04-04T18:35:03.572Z,82.83
2019-04-04T18:37:32.504Z,109.80
2019-04-04T18:40:00.838Z,109.60
2019-04-04T18:42:29.366Z,104.27
2019-04-04T18:44:57.810Z,106.43
2019-04-04T18:47:26.032Z,108.00
2019-04-04T18:49:54.377Z,112.87
2019-04-04T18:52:23.317Z,108.67
2019-04-04T18:54:52.047Z,98.63
2019-04-04T18:57:20.553Z,125.47
2019-04-04T18:59:49.354Z,95.83
2019-04-04T19:02:18.619Z,197.17
2019-04-04T19:04:47.790Z,155.57
2019-04-04T19:07:16.530Z,171.70
2019-04-04T19:09:45.438Z,218.90
2019-04-04T19:12:13.916Z,213.00
2019-04-04T19:14:42.244Z,191.80
2019-04-04T19:17:10.783Z,185.03
2019-04-04T19:19:39.124Z,159.93
2019-04-04T19:22:07.790Z,190.23
2019-04-04T19:24:37.675Z,201.67
2019-04-04T19:27:09.607Z,242.50
2019-04-04T19:29:38.484Z,281.43
2019-04-04T19:32:06.935Z,216.30
2019-04-04T19:34:35.846Z,180.67
2019-04-04T19:37:04.258Z,131.70
2019-04-04T19:39:32.644Z,114.20
2019-04-04T19:42:00.909Z,82.47
2019-04-04T19:44:29.576Z,132.87
2019-04-04T19:46:57.988Z,120.53
2019-04-04T19:49:26.537Z,114.70
2019-04-04T19:51:55.218Z,107.87
2019-04-04T19:54:23.575Z,67.13
2019-04-04T19:56:52.217Z,96.67
2019-04-04T19:59:20.745Z,75.27
2019-04-04T20:01:49.212Z,49.37
2019-04-04T20:04:19.086Z,67.83
2019-04-04T20:06:47.665Z,58.03
2019-04-04T20:09:16.781Z,87.07
2019-04-04T20:11:45.285Z,28.43
2019-04-04T20:14:13.669Z,42.53
2019-04-04T20:16:42.676Z,66.37
2019-04-04T20:19:11.166Z,52.37
2019-04-04T20:21:39.644Z,28.90
2019-04-04T20:24:08.414Z,28.30
2019-04-04T20:26:37.347Z,52.07
2019-04-04T20:29:05.707Z,93.83
2019-04-04T20:31:33.883Z,72.10
2019-04-04T20:34:05.695Z,402.90
2019-04-04T20:36:32.334Z,393.10
2019-04-04T20:39:00.581Z,163.53
2019-04-04T20:41:28.862Z,131.30
2019-04-04T20:43:57.477Z,108.60
2019-04-04T20:46:26.079Z,164.20
2019-04-04T20:48:54.768Z,112.63
2019-04-04T20:51:23.221Z,110.93
2019-04-04T20:53:51.811Z,187.60
2019-04-04T20:56:20.410Z,85.03
2019-04-04T20:58:49.085Z,39.50
2019-04-04T21:01:17.528Z,54.83
2019-04-04T21:03:46.121Z,48.67
2019-04-04T21:06:15.616Z,96.90
2019-04-04T21:08:44.251Z,89.43
2019-04-04T21:11:12.917Z,93.93
2019-04-04T21:13:41.929Z,105.00
2019-04-04T21:16:10.537Z,207.97
2019-04-04T21:18:39.031Z,136.37
2019-04-04T21:21:07.371Z,84.30
2019-04-04T21:23:37.022Z,76.77
2019-04-04T21:26:05.490Z,83.03
2019-04-04T21:28:34.138Z,65.97
2019-04-04T21:31:02.620Z,75.00
2019-04-04T21:33:31.168Z,70.87
2019-04-04T21:35:59.423Z,71.90
2019-04-04T21:38:27.847Z,72.70
2019-04-04T21:40:56.510Z,88.90
2019-04-04T21:43:24.803Z,75.03
2019-04-04T21:45:53.034Z,77.40
2019-04-04T21:48:21.582Z,73.33
2019-04-04T21:50:49.910Z,75.30
2019-04-04T21:53:18.317Z,91.83
2019-04-04T21:56:04.525Z,78.53
2019-04-04T21:58:33.294Z,79.87
2019-04-04T22:01:01.777Z,72.90
2019-04-04T22:03:29.998Z,73.10
2019-04-04T22:05:58.238Z,84.77
2019-04-04T22:08:27.323Z,73.57
2019-04-04T22:10:55.988Z,86.50
2019-04-04T22:13:24.776Z,76.47
2019-04-04T22:15:53.220Z,86.23
2019-04-04T22:18:21.915Z,82.23
2019-04-04T22:20:50.108Z,92.93
2019-04-04T22:23:18.596Z,78.27
2019-04-04T22:25:47.187Z,78.37
2019-04-04T22:28:15.335Z,86.20
2019-04-04T22:30:44.152Z,99.87
2019-04-04T22:33:12.391Z,101.40
2019-04-04T22:35:40.670Z,111.13
2019-04-04T22:38:08.938Z,101.10
2019-04-04T22:40:37.253Z,93.67
2019-04-04T22:46:09.846Z,63.57
2019-04-04T22:48:38.241Z,63.77
2019-04-04T22:51:06.686Z,59.50
2019-04-04T22:53:35.335Z,55.33
2019-04-04T22:56:03.955Z,51.60
2019-04-04T22:58:32.291Z,57.77
2019-04-04T23:01:00.588Z,45.93
2019-04-04T23:03:29.600Z,54.27
2019-04-04T23:05:58.046Z,44.57
2019-04-04T23:08:26.554Z,50.13
2019-04-04T23:10:55.782Z,52.07
2019-04-04T23:13:24.361Z,58.07
2019-04-04T23:15:52.611Z,60.50
2019-04-04T23:18:21.113Z,63.40
2019-04-04T23:20:49.568Z,62.63
2019-04-04T23:23:17.929Z,60.63
2019-04-04T23:25:46.144Z,69.10
2019-04-04T23:28:14.664Z,57.57
2019-04-04T23:30:43.413Z,54.50
2019-04-04T23:33:11.686Z,57.43
2019-04-04T23:35:40.036Z,56.30
2019-04-04T23:38:08.313Z,54.63
2019-04-04T23:40:36.722Z,55.63
2019-04-04T23:43:04.870Z,54.53
2019-04-04T23:45:33.121Z,76.67
2019-04-04T23:48:03.062Z,60.03
2019-04-04T23:50:31.457Z,58.47
2019-04-04T23:52:59.679Z,57.70
2019-04-04T23:55:27.859Z,56.13
2019-04-04T23:57:56.051Z,51.63
